ARKANSAS RIVER NAVIGATION REPORT
  LITTLE ROCK DISTRICT - U.S. ARMY CORPS OF ENGINEERS
  GENERATED: 25 MAR 2017 @ 16:35
 
  NOTE: These data are not guaranteed to be valid or correct.
        RELEASES AND FLOWS ARE IN THOUSANDS OF CFS
  _____________________________________________________________________________
 
                  24MAR     24MAR      24MAR           25MAR          25MAR
                  @1200     @2400     AVERAGE      LATEST OBSERVED    PRECIP.
                  HOURS     HOURS      FLOW         DATA AND TIME     (7A-7A)
  _____________________________________________________________________________
 
  LD13 HW-ELEV    391.51    392.04                391.42  @  15:00      1.47
  LD13 TW-ELEV    372.34    373.95                371.89  @  15:00
  LD13 RELEASE      8.0      34.1      14.8         8.0   @  15:00
 
  OZA.L&D HW-ELEV 371.93    372.04                371.96  @  15:00      1.86
  OZA.L&D TW-ELEV 337.91    339.36                339.35  @  15:00
  OZA.L&D RELEASE   8.8      23.0      12.4        18.5   @  15:00
 
  DRD.L&D HW-ELEV 337.76    337.91                338.34  @  15:00      1.33
  DRD.L&D TW-ELEV 286.74    287.79                289.16  @  15:00
  DRD.L&D RELEASE   8.4      24.9       9.3        39.4   @  15:00
 
  LD09 HW-ELEV    286.05    286.58                286.76  @  15:00      1.03
  LD09 TW-ELEV    264.98    265.88                268.73  @  15:00
  LD09 RELEASE      5.1      20.1       7.3        44.8   @  15:00
 
  LD08 HW-ELEV    265.00    265.12                264.86  @  15:00      2.57
  LD08 TW-ELEV    249.51    250.68                254.77  @  15:00
  LD08 RELEASE      6.2      13.4       6.5        31.4   @  15:00
 
  LD07 HW-ELEV    249.21    249.43                249.20  @  15:00       .51
  LD07 TW-ELEV    231.12    231.19                231.70  @  15:00
  LD07 RELEASE      6.2      17.0       7.4        44.1   @  15:00
 
  LD06 HW-ELEV    231.08    231.15                231.16  @  15:00       .68
  LD06 TW-ELEV    213.21    213.60                214.82  @  15:00
  LD06 RELEASE      6.7      12.4       7.1        37.0   @  15:00
 
  LD05 HW-ELEV    213.25    213.32                213.19  @  15:00      1.23
  LD05 TW-ELEV    196.05    196.54                197.02  @  15:00
  LD05 RELEASE      4.9      11.3       5.5        40.7   @  15:00
 
  LD04 HW-ELEV    196.25    196.26                196.11  @  15:00      1.14
  LD04 TW-ELEV    182.55    182.49                183.25  @  15:00
  LD04 RELEASE      4.8      14.5       5.7        39.7   @  15:00
 
  LD03 HW-ELEV    182.30    182.17                181.88  @  15:00      1.86
  LD03 TW-ELEV    162.53    163.23                166.85  @  15:00
  LD03 RELEASE      5.3      13.1       5.5        39.8   @  12:00
 
  L02 HW-ELEV     162.10    161.91                162.16  @  15:00       .45
 
  D02 HW-ELEV     162.26    162.12                162.21  @  15:00       .45
  D02 TW-ELEV     122.68    122.43                130.26  @  15:00
  D02 RELEASE       7.6       7.6       7.1        40.7   @  15:00
 
  L01 TW-ELEV     131.21    130.63                130.35  @  15:00       .28
 
  MPLD HW-ELEV    129.99    129.52                129.28  @  15:00       .36	
  MPLD TW-ELEV    129.92    129.45                129.21  @  15:00
 
  WREC DIFF.        1.22      1.11                  1.07
  CLARENDON FLOW   25.04     24.60     25.06       25.00  @  15:00
  HELENA STAGE     17.79     17.55                 17.63  @  15:00
  CAIRO STAGE      26.17     26.40                 26.66  @  15:00
  _____________________________________________________________________________